sensor_id;sensor_type;location;lat;lon;timestamp;P1;durP1;ratioP1;P2;durP2;ratioP2
23242;SDS011;11790;49.578;11.214;2022-11-09T00:04:10;7.68;;;4.63;;
23242;SDS011;11790;49.578;11.214;2022-11-09T00:09:10;12.83;;;6.53;;
23242;SDS011;11790;49.578;11.214;2022-11-09T00:14:14;16.80;;;8.27;;
23242;SDS011;11790;49.578;11.214;2022-11-09T00:19:14;29.75;;;14.75;;
23242;SDS011;11790;49.578;11.214;2022-11-09T00:24:16;19.42;;;9.02;;
23242;SDS011;11790;49.578;11.214;2022-11-09T00:29:16;40.78;;;15.40;;
23242;SDS011;11790;49.578;11.214;2022-11-09T00:34:16;25.10;;;9.80;;
23242;SDS011;11790;49.578;11.214;2022-11-09T00:39:16;21.77;;;8.20;;
23242;SDS011;11790;49.578;11.214;2022-11-09T00:44:17;15.52;;;6.45;;
23242;SDS011;11790;49.578;11.214;2022-11-09T00:49:17;11.35;;;5.05;;
23242;SDS011;11790;49.578;11.214;2022-11-09T00:54:18;8.35;;;5.00;;
23242;SDS011;11790;49.578;11.214;2022-11-09T00:59:18;10.13;;;5.57;;
23242;SDS011;11790;49.578;11.214;2022-11-09T01:04:19;8.82;;;4.72;;
23242;SDS011;11790;49.578;11.214;2022-11-09T01:09:20;10.38;;;4.82;;
23242;SDS011;11790;49.578;11.214;2022-11-09T01:14:20;10.00;;;5.22;;
23242;SDS011;11790;49.578;11.214;2022-11-09T01:19:20;7.50;;;5.10;;
23242;SDS011;11790;49.578;11.214;2022-11-09T01:24:20;7.88;;;4.68;;
23242;SDS011;11790;49.578;11.214;2022-11-09T01:29:21;11.32;;;5.75;;
23242;SDS011;11790;49.578;11.214;2022-11-09T01:34:21;14.35;;;6.18;;
23242;SDS011;11790;49.578;11.214;2022-11-09T01:39:21;11.45;;;5.85;;
23242;SDS011;11790;49.578;11.214;2022-11-09T01:44:21;9.85;;;5.20;;
23242;SDS011;11790;49.578;11.214;2022-11-09T01:49:34;6.25;;;4.38;;
23242;SDS011;11790;49.578;11.214;2022-11-09T01:54:40;8.18;;;4.47;;
23242;SDS011;11790;49.578;11.214;2022-11-09T01:59:42;6.30;;;4.13;;
23242;SDS011;11790;49.578;11.214;2022-11-09T02:04:47;7.40;;;4.00;;
23242;SDS011;11790;49.578;11.214;2022-11-09T02:09:58;9.10;;;4.10;;
23242;SDS011;11790;49.578;11.214;2022-11-09T02:15:01;8.65;;;4.40;;
23242;SDS011;11790;49.578;11.214;2022-11-09T02:20:05;7.45;;;4.22;;
23242;SDS011;11790;49.578;11.214;2022-11-09T02:25:06;6.57;;;4.32;;
23242;SDS011;11790;49.578;11.214;2022-11-09T02:30:07;9.32;;;4.28;;
23242;SDS011;11790;49.578;11.214;2022-11-09T02:35:08;6.28;;;3.92;;
23242;SDS011;11790;49.578;11.214;2022-11-09T02:40:10;6.40;;;3.70;;
23242;SDS011;11790;49.578;11.214;2022-11-09T02:45:12;6.50;;;3.90;;
23242;SDS011;11790;49.578;11.214;2022-11-09T02:50:12;6.38;;;3.83;;
23242;SDS011;11790;49.578;11.214;2022-11-09T02:55:12;7.88;;;3.70;;
23242;SDS011;11790;49.578;11.214;2022-11-09T03:00:13;7.60;;;4.00;;
23242;SDS011;11790;49.578;11.214;2022-11-09T03:05:13;5.47;;;3.60;;
23242;SDS011;11790;49.578;11.214;2022-11-09T03:10:14;8.63;;;3.90;;
23242;SDS011;11790;49.578;11.214;2022-11-09T03:15:14;5.43;;;3.15;;
23242;SDS011;11790;49.578;11.214;2022-11-09T03:20:14;6.10;;;3.50;;
23242;SDS011;11790;49.578;11.214;2022-11-09T03:25:15;6.37;;;3.57;;
23242;SDS011;11790;49.578;11.214;2022-11-09T03:30:15;5.43;;;3.40;;
23242;SDS011;11790;49.578;11.214;2022-11-09T03:35:18;5.75;;;3.25;;
23242;SDS011;11790;49.578;11.214;2022-11-09T03:40:18;6.57;;;3.30;;
23242;SDS011;11790;49.578;11.214;2022-11-09T03:45:18;5.40;;;3.55;;
23242;SDS011;11790;49.578;11.214;2022-11-09T03:50:19;7.25;;;3.70;;
23242;SDS011;11790;49.578;11.214;2022-11-09T03:55:19;6.05;;;4.03;;
23242;SDS011;11790;49.578;11.214;2022-11-09T04:00:20;5.28;;;3.70;;
23242;SDS011;11790;49.578;11.214;2022-11-09T04:05:20;5.03;;;3.53;;
23242;SDS011;11790;49.578;11.214;2022-11-09T04:10:21;7.45;;;3.95;;
23242;SDS011;11790;49.578;11.214;2022-11-09T04:15:21;6.75;;;4.20;;
23242;SDS011;11790;49.578;11.214;2022-11-09T04:20:22;6.53;;;3.72;;
23242;SDS011;11790;49.578;11.214;2022-11-09T04:25:22;5.95;;;3.40;;
23242;SDS011;11790;49.578;11.214;2022-11-09T04:30:23;7.57;;;3.58;;
23242;SDS011;11790;49.578;11.214;2022-11-09T04:35:24;5.90;;;3.55;;
23242;SDS011;11790;49.578;11.214;2022-11-09T04:40:25;8.38;;;3.70;;
23242;SDS011;11790;49.578;11.214;2022-11-09T04:45:25;4.93;;;3.33;;
23242;SDS011;11790;49.578;11.214;2022-11-09T04:50:26;4.47;;;2.88;;
23242;SDS011;11790;49.578;11.214;2022-11-09T04:55:26;5.28;;;2.97;;
23242;SDS011;11790;49.578;11.214;2022-11-09T05:00:27;11.32;;;3.45;;
23242;SDS011;11790;49.578;11.214;2022-11-09T05:05:27;6.18;;;3.80;;
23242;SDS011;11790;49.578;11.214;2022-11-09T05:10:28;5.82;;;3.30;;
23242;SDS011;11790;49.578;11.214;2022-11-09T05:15:28;5.82;;;3.42;;
23242;SDS011;11790;49.578;11.214;2022-11-09T05:20:29;6.43;;;3.67;;
23242;SDS011;11790;49.578;11.214;2022-11-09T05:25:29;6.00;;;3.60;;
23242;SDS011;11790;49.578;11.214;2022-11-09T05:30:29;5.53;;;3.70;;
23242;SDS011;11790;49.578;11.214;2022-11-09T05:35:31;6.15;;;4.15;;
23242;SDS011;11790;49.578;11.214;2022-11-09T05:40:32;11.07;;;4.00;;
23242;SDS011;11790;49.578;11.214;2022-11-09T05:45:33;6.68;;;3.38;;
23242;SDS011;11790;49.578;11.214;2022-11-09T05:50:33;4.93;;;3.25;;
23242;SDS011;11790;49.578;11.214;2022-11-09T05:55:33;5.15;;;3.20;;
23242;SDS011;11790;49.578;11.214;2022-11-09T06:00:34;5.50;;;3.33;;
23242;SDS011;11790;49.578;11.214;2022-11-09T06:05:34;5.90;;;3.92;;
23242;SDS011;11790;49.578;11.214;2022-11-09T06:10:35;6.22;;;3.60;;
23242;SDS011;11790;49.578;11.214;2022-11-09T06:15:35;6.43;;;3.35;;
23242;SDS011;11790;49.578;11.214;2022-11-09T06:20:36;5.90;;;3.35;;
23242;SDS011;11790;49.578;11.214;2022-11-09T06:25:36;8.82;;;3.72;;
23242;SDS011;11790;49.578;11.214;2022-11-09T06:30:36;7.80;;;4.33;;
23242;SDS011;11790;49.578;11.214;2022-11-09T06:35:36;6.82;;;4.13;;
23242;SDS011;11790;49.578;11.214;2022-11-09T06:40:37;9.15;;;5.35;;
23242;SDS011;11790;49.578;11.214;2022-11-09T06:45:38;9.82;;;4.80;;
23242;SDS011;11790;49.578;11.214;2022-11-09T06:50:38;7.90;;;4.97;;
23242;SDS011;11790;49.578;11.214;2022-11-09T06:55:38;8.52;;;5.10;;
23242;SDS011;11790;49.578;11.214;2022-11-09T07:00:39;9.77;;;5.30;;
23242;SDS011;11790;49.578;11.214;2022-11-09T07:05:39;12.50;;;5.75;;
23242;SDS011;11790;49.578;11.214;2022-11-09T07:10:39;9.93;;;5.68;;
23242;SDS011;11790;49.578;11.214;2022-11-09T07:15:39;8.90;;;5.60;;
23242;SDS011;11790;49.578;11.214;2022-11-09T07:20:40;10.95;;;5.80;;
23242;SDS011;11790;49.578;11.214;2022-11-09T07:25:40;22.70;;;12.48;;
23242;SDS011;11790;49.578;11.214;2022-11-09T07:30:40;13.82;;;7.32;;
23242;SDS011;11790;49.578;11.214;2022-11-09T07:35:40;18.92;;;11.30;;
23242;SDS011;11790;49.578;11.214;2022-11-09T07:40:41;24.15;;;12.98;;
23242;SDS011;11790;49.578;11.214;2022-11-09T07:45:41;13.43;;;8.02;;
23242;SDS011;11790;49.578;11.214;2022-11-09T07:50:42;11.40;;;7.85;;
23242;SDS011;11790;49.578;11.214;2022-11-09T07:55:42;12.63;;;7.45;;
23242;SDS011;11790;49.578;11.214;2022-11-09T08:00:43;17.17;;;7.60;;
23242;SDS011;11790;49.578;11.214;2022-11-09T08:05:43;10.13;;;6.20;;
23242;SDS011;11790;49.578;11.214;2022-11-09T08:10:43;11.15;;;6.72;;
23242;SDS011;11790;49.578;11.214;2022-11-09T08:15:50;12.23;;;7.25;;
23242;SDS011;11790;49.578;11.214;2022-11-09T08:20:50;10.63;;;6.65;;
23242;SDS011;11790;49.578;11.214;2022-11-09T08:25:50;10.65;;;6.57;;
23242;SDS011;11790;49.578;11.214;2022-11-09T08:30:55;10.98;;;6.78;;
23242;SDS011;11790;49.578;11.214;2022-11-09T08:35:55;12.55;;;7.68;;
23242;SDS011;11790;49.578;11.214;2022-11-09T08:40:56;11.90;;;7.70;;
23242;SDS011;11790;49.578;11.214;2022-11-09T08:45:57;11.25;;;7.03;;
23242;SDS011;11790;49.578;11.214;2022-11-09T08:50:58;10.32;;;6.80;;
23242;SDS011;11790;49.578;11.214;2022-11-09T08:55:58;12.43;;;7.30;;
23242;SDS011;11790;49.578;11.214;2022-11-09T09:00:59;10.20;;;7.32;;
23242;SDS011;11790;49.578;11.214;2022-11-09T09:06:03;13.40;;;7.20;;
23242;SDS011;11790;49.578;11.214;2022-11-09T09:11:04;12.45;;;6.97;;
23242;SDS011;11790;49.578;11.214;2022-11-09T09:16:08;9.48;;;7.00;;
23242;SDS011;11790;49.578;11.214;2022-11-09T09:21:09;11.70;;;6.93;;
23242;SDS011;11790;49.578;11.214;2022-11-09T09:26:09;9.70;;;6.25;;
23242;SDS011;11790;49.578;11.214;2022-11-09T09:31:09;21.95;;;10.77;;
23242;SDS011;11790;49.578;11.214;2022-11-09T09:36:14;17.27;;;8.45;;
23242;SDS011;11790;49.578;11.214;2022-11-09T09:41:36;11.65;;;7.05;;
23242;SDS011;11790;49.578;11.214;2022-11-09T09:46:40;10.45;;;6.78;;
23242;SDS011;11790;49.578;11.214;2022-11-09T09:51:42;10.07;;;6.60;;
23242;SDS011;11790;49.578;11.214;2022-11-09T09:56:44;11.63;;;7.35;;
23242;SDS011;11790;49.578;11.214;2022-11-09T10:01:46;14.75;;;7.60;;
23242;SDS011;11790;49.578;11.214;2022-11-09T10:12:04;12.63;;;7.03;;
23242;SDS011;11790;49.578;11.214;2022-11-09T10:17:13;12.43;;;6.88;;
23242;SDS011;11790;49.578;11.214;2022-11-09T10:22:21;16.92;;;8.52;;
23242;SDS011;11790;49.578;11.214;2022-11-09T10:27:35;15.63;;;9.07;;
23242;SDS011;11790;49.578;11.214;2022-11-09T10:32:36;14.88;;;8.00;;
23242;SDS011;11790;49.578;11.214;2022-11-09T10:37:37;15.20;;;10.23;;
23242;SDS011;11790;49.578;11.214;2022-11-09T10:42:38;10.82;;;6.75;;
23242;SDS011;11790;49.578;11.214;2022-11-09T10:47:47;11.75;;;6.65;;
23242;SDS011;11790;49.578;11.214;2022-11-09T10:52:48;11.35;;;5.97;;
23242;SDS011;11790;49.578;11.214;2022-11-09T10:57:53;11.57;;;6.85;;
23242;SDS011;11790;49.578;11.214;2022-11-09T11:02:54;10.63;;;5.90;;
23242;SDS011;11790;49.578;11.214;2022-11-09T11:07:54;9.45;;;6.20;;
23242;SDS011;11790;49.578;11.214;2022-11-09T11:18:01;10.55;;;6.10;;
23242;SDS011;11790;49.578;11.214;2022-11-09T11:29:03;8.73;;;5.57;;
23242;SDS011;11790;49.578;11.214;2022-11-09T11:33:35;8.70;;;5.93;;
23242;SDS011;11790;49.578;11.214;2022-11-09T11:43:51;11.50;;;6.88;;
23242;SDS011;11790;49.578;11.214;2022-11-09T11:54:04;9.73;;;4.35;;
23242;SDS011;11790;49.578;11.214;2022-11-09T12:10:02;5.50;;;3.42;;
23242;SDS011;11790;49.578;11.214;2022-11-09T12:15:10;5.72;;;3.55;;
23242;SDS011;11790;49.578;11.214;2022-11-09T12:20:20;9.30;;;4.03;;
23242;SDS011;11790;49.578;11.214;2022-11-09T12:36:03;6.63;;;3.25;;
23242;SDS011;11790;49.578;11.214;2022-11-09T12:41:14;5.80;;;3.30;;
23242;SDS011;11790;49.578;11.214;2022-11-09T12:46:16;6.63;;;3.60;;
23242;SDS011;11790;49.578;11.214;2022-11-09T12:51:16;8.90;;;3.47;;
23242;SDS011;11790;49.578;11.214;2022-11-09T12:56:21;4.30;;;3.03;;
23242;SDS011;11790;49.578;11.214;2022-11-09T13:06:32;4.90;;;2.67;;
23242;SDS011;11790;49.578;11.214;2022-11-09T13:11:37;5.35;;;3.00;;
23242;SDS011;11790;49.578;11.214;2022-11-09T13:16:38;6.68;;;3.30;;
23242;SDS011;11790;49.578;11.214;2022-11-09T13:21:38;5.47;;;3.85;;
23242;SDS011;11790;49.578;11.214;2022-11-09T13:32:02;5.38;;;2.95;;
23242;SDS011;11790;49.578;11.214;2022-11-09T13:42:25;5.82;;;3.33;;
23242;SDS011;11790;49.578;11.214;2022-11-09T13:47:29;8.48;;;4.78;;
23242;SDS011;11790;49.578;11.214;2022-11-09T13:53:04;7.25;;;4.57;;
23242;SDS011;11790;49.578;11.214;2022-11-09T13:57:59;8.05;;;4.07;;
23242;SDS011;11790;49.578;11.214;2022-11-09T14:08:24;5.60;;;4.07;;
23242;SDS011;11790;49.578;11.214;2022-11-09T14:19:29;4.88;;;3.70;;
23242;SDS011;11790;49.578;11.214;2022-11-09T14:29:18;5.95;;;3.10;;
23242;SDS011;11790;49.578;11.214;2022-11-09T14:34:19;6.82;;;3.63;;
23242;SDS011;11790;49.578;11.214;2022-11-09T14:39:22;5.25;;;3.40;;
23242;SDS011;11790;49.578;11.214;2022-11-09T14:44:30;7.97;;;3.78;;
23242;SDS011;11790;49.578;11.214;2022-11-09T14:49:34;4.93;;;3.45;;
23242;SDS011;11790;49.578;11.214;2022-11-09T14:54:35;9.13;;;3.80;;
23242;SDS011;11790;49.578;11.214;2022-11-09T14:59:35;8.57;;;4.40;;
23242;SDS011;11790;49.578;11.214;2022-11-09T15:04:54;6.60;;;4.82;;
23242;SDS011;11790;49.578;11.214;2022-11-09T15:09:56;11.07;;;4.97;;
23242;SDS011;11790;49.578;11.214;2022-11-09T15:14:58;8.13;;;4.85;;
23242;SDS011;11790;49.578;11.214;2022-11-09T15:20:02;6.97;;;4.07;;
23242;SDS011;11790;49.578;11.214;2022-11-09T15:25:21;6.97;;;4.07;;
23242;SDS011;11790;49.578;11.214;2022-11-09T15:31:06;8.30;;;4.10;;
23242;SDS011;11790;49.578;11.214;2022-11-09T15:35:48;6.43;;;3.65;;
23242;SDS011;11790;49.578;11.214;2022-11-09T15:40:49;7.07;;;3.97;;
23242;SDS011;11790;49.578;11.214;2022-11-09T15:45:49;8.38;;;4.95;;
23242;SDS011;11790;49.578;11.214;2022-11-09T15:50:49;9.32;;;5.10;;
23242;SDS011;11790;49.578;11.214;2022-11-09T15:55:50;10.75;;;5.38;;
23242;SDS011;11790;49.578;11.214;2022-11-09T16:00:50;7.13;;;4.40;;
23242;SDS011;11790;49.578;11.214;2022-11-09T16:05:50;10.38;;;4.85;;
23242;SDS011;11790;49.578;11.214;2022-11-09T16:10:50;9.32;;;4.70;;
23242;SDS011;11790;49.578;11.214;2022-11-09T16:15:51;6.50;;;3.93;;
23242;SDS011;11790;49.578;11.214;2022-11-09T16:20:51;7.60;;;4.88;;
23242;SDS011;11790;49.578;11.214;2022-11-09T16:25:51;8.35;;;4.68;;
23242;SDS011;11790;49.578;11.214;2022-11-09T16:30:51;7.43;;;5.03;;
23242;SDS011;11790;49.578;11.214;2022-11-09T16:35:52;9.98;;;5.20;;
23242;SDS011;11790;49.578;11.214;2022-11-09T16:40:53;9.85;;;5.93;;
23242;SDS011;11790;49.578;11.214;2022-11-09T16:45:54;9.03;;;6.07;;
23242;SDS011;11790;49.578;11.214;2022-11-09T16:50:54;20.07;;;10.57;;
23242;SDS011;11790;49.578;11.214;2022-11-09T16:55:54;18.67;;;11.43;;
23242;SDS011;11790;49.578;11.214;2022-11-09T17:00:54;11.43;;;7.22;;
23242;SDS011;11790;49.578;11.214;2022-11-09T17:05:58;14.07;;;7.72;;
23242;SDS011;11790;49.578;11.214;2022-11-09T17:10:59;16.17;;;9.48;;
23242;SDS011;11790;49.578;11.214;2022-11-09T17:16:02;16.15;;;8.70;;
23242;SDS011;11790;49.578;11.214;2022-11-09T17:21:02;15.23;;;9.88;;
23242;SDS011;11790;49.578;11.214;2022-11-09T17:26:03;17.10;;;9.63;;
23242;SDS011;11790;49.578;11.214;2022-11-09T17:31:11;14.98;;;9.18;;
23242;SDS011;11790;49.578;11.214;2022-11-09T17:36:13;13.48;;;8.75;;
23242;SDS011;11790;49.578;11.214;2022-11-09T17:41:17;16.60;;;10.90;;
23242;SDS011;11790;49.578;11.214;2022-11-09T17:46:18;18.98;;;11.77;;
23242;SDS011;11790;49.578;11.214;2022-11-09T17:51:19;16.63;;;9.85;;
23242;SDS011;11790;49.578;11.214;2022-11-09T17:56:19;25.30;;;13.27;;
23242;SDS011;11790;49.578;11.214;2022-11-09T18:01:20;24.92;;;13.43;;
23242;SDS011;11790;49.578;11.214;2022-11-09T18:06:21;16.13;;;9.52;;
23242;SDS011;11790;49.578;11.214;2022-11-09T18:11:22;10.25;;;7.47;;
23242;SDS011;11790;49.578;11.214;2022-11-09T18:16:22;17.40;;;10.23;;
23242;SDS011;11790;49.578;11.214;2022-11-09T18:21:23;17.45;;;9.20;;
23242;SDS011;11790;49.578;11.214;2022-11-09T18:26:24;13.60;;;8.95;;
23242;SDS011;11790;49.578;11.214;2022-11-09T18:31:24;12.20;;;8.48;;
23242;SDS011;11790;49.578;11.214;2022-11-09T18:36:24;13.82;;;9.30;;
23242;SDS011;11790;49.578;11.214;2022-11-09T18:41:26;11.75;;;8.02;;
23242;SDS011;11790;49.578;11.214;2022-11-09T18:46:26;11.82;;;8.02;;
23242;SDS011;11790;49.578;11.214;2022-11-09T18:51:29;9.88;;;7.45;;
23242;SDS011;11790;49.578;11.214;2022-11-09T18:56:29;9.07;;;6.70;;
23242;SDS011;11790;49.578;11.214;2022-11-09T19:01:30;10.02;;;6.35;;
23242;SDS011;11790;49.578;11.214;2022-11-09T19:06:30;10.07;;;6.03;;
23242;SDS011;11790;49.578;11.214;2022-11-09T19:11:31;8.05;;;6.00;;
23242;SDS011;11790;49.578;11.214;2022-11-09T19:16:31;9.50;;;5.80;;
23242;SDS011;11790;49.578;11.214;2022-11-09T19:21:33;8.60;;;5.57;;
23242;SDS011;11790;49.578;11.214;2022-11-09T19:26:34;9.63;;;5.20;;
23242;SDS011;11790;49.578;11.214;2022-11-09T19:31:34;9.68;;;4.70;;
23242;SDS011;11790;49.578;11.214;2022-11-09T19:36:35;11.40;;;5.63;;
23242;SDS011;11790;49.578;11.214;2022-11-09T19:41:35;9.40;;;5.60;;
23242;SDS011;11790;49.578;11.214;2022-11-09T19:46:35;9.45;;;6.00;;
23242;SDS011;11790;49.578;11.214;2022-11-09T19:51:36;15.45;;;6.22;;
23242;SDS011;11790;49.578;11.214;2022-11-09T19:56:37;8.55;;;5.68;;
23242;SDS011;11790;49.578;11.214;2022-11-09T20:01:37;6.68;;;4.85;;
23242;SDS011;11790;49.578;11.214;2022-11-09T20:06:38;7.88;;;5.15;;
23242;SDS011;11790;49.578;11.214;2022-11-09T20:11:38;7.65;;;4.68;;
23242;SDS011;11790;49.578;11.214;2022-11-09T20:16:57;5.65;;;4.20;;
23242;SDS011;11790;49.578;11.214;2022-11-09T20:21:58;8.80;;;4.93;;
23242;SDS011;11790;49.578;11.214;2022-11-09T20:26:58;5.72;;;4.22;;
23242;SDS011;11790;49.578;11.214;2022-11-09T20:31:58;6.63;;;3.92;;
23242;SDS011;11790;49.578;11.214;2022-11-09T20:36:59;8.17;;;4.67;;
23242;SDS011;11790;49.578;11.214;2022-11-09T20:41:59;6.28;;;4.55;;
23242;SDS011;11790;49.578;11.214;2022-11-09T20:47:00;6.90;;;4.60;;
23242;SDS011;11790;49.578;11.214;2022-11-09T20:52:00;8.95;;;5.50;;
23242;SDS011;11790;49.578;11.214;2022-11-09T20:57:00;9.48;;;5.05;;
23242;SDS011;11790;49.578;11.214;2022-11-09T21:02:00;9.32;;;5.22;;
23242;SDS011;11790;49.578;11.214;2022-11-09T21:07:00;7.50;;;4.82;;
23242;SDS011;11790;49.578;11.214;2022-11-09T21:12:01;9.15;;;5.32;;
23242;SDS011;11790;49.578;11.214;2022-11-09T21:17:19;9.23;;;5.45;;
23242;SDS011;11790;49.578;11.214;2022-11-09T21:22:20;12.77;;;6.07;;
23242;SDS011;11790;49.578;11.214;2022-11-09T21:27:20;10.07;;;6.40;;
23242;SDS011;11790;49.578;11.214;2022-11-09T21:32:39;10.18;;;7.35;;
23242;SDS011;11790;49.578;11.214;2022-11-09T21:37:39;11.65;;;8.23;;
23242;SDS011;11790;49.578;11.214;2022-11-09T21:42:40;18.40;;;9.20;;
23242;SDS011;11790;49.578;11.214;2022-11-09T21:47:40;11.23;;;7.75;;
23242;SDS011;11790;49.578;11.214;2022-11-09T21:52:40;10.85;;;6.70;;
23242;SDS011;11790;49.578;11.214;2022-11-09T21:57:40;12.32;;;7.05;;
23242;SDS011;11790;49.578;11.214;2022-11-09T22:02:41;8.75;;;6.25;;
23242;SDS011;11790;49.578;11.214;2022-11-09T22:07:41;7.75;;;6.00;;
23242;SDS011;11790;49.578;11.214;2022-11-09T22:12:41;10.40;;;5.97;;
23242;SDS011;11790;49.578;11.214;2022-11-09T22:18:01;8.30;;;5.13;;
23242;SDS011;11790;49.578;11.214;2022-11-09T22:23:07;6.30;;;4.32;;
23242;SDS011;11790;49.578;11.214;2022-11-09T22:28:07;6.55;;;4.63;;
23242;SDS011;11790;49.578;11.214;2022-11-09T22:33:07;7.00;;;4.35;;
23242;SDS011;11790;49.578;11.214;2022-11-09T22:38:08;6.18;;;4.53;;
23242;SDS011;11790;49.578;11.214;2022-11-09T22:43:08;8.07;;;5.27;;
23242;SDS011;11790;49.578;11.214;2022-11-09T22:48:08;8.52;;;5.35;;
23242;SDS011;11790;49.578;11.214;2022-11-09T22:53:08;8.80;;;5.25;;
23242;SDS011;11790;49.578;11.214;2022-11-09T22:58:09;9.93;;;6.03;;
23242;SDS011;11790;49.578;11.214;2022-11-09T23:03:09;9.48;;;5.65;;
23242;SDS011;11790;49.578;11.214;2022-11-09T23:08:10;10.77;;;6.28;;
23242;SDS011;11790;49.578;11.214;2022-11-09T23:13:10;13.73;;;7.05;;
23242;SDS011;11790;49.578;11.214;2022-11-09T23:18:10;8.93;;;5.60;;
23242;SDS011;11790;49.578;11.214;2022-11-09T23:23:29;7.80;;;4.65;;
23242;SDS011;11790;49.578;11.214;2022-11-09T23:28:29;5.78;;;4.10;;
23242;SDS011;11790;49.578;11.214;2022-11-09T23:33:30;8.55;;;4.43;;
23242;SDS011;11790;49.578;11.214;2022-11-09T23:38:33;9.20;;;4.82;;
23242;SDS011;11790;49.578;11.214;2022-11-09T23:43:34;6.95;;;3.88;;
23242;SDS011;11790;49.578;11.214;2022-11-09T23:48:34;6.65;;;3.63;;
23242;SDS011;11790;49.578;11.214;2022-11-09T23:53:35;5.80;;;3.47;;
23242;SDS011;11790;49.578;11.214;2022-11-09T23:58:35;6.53;;;3.37;;
